WetterOnline ( https://www.wetteronline.de )

Wetter aktuell Freiburg im Breisgau

Aktuelles Wetter: Freiburg/Flugplatz (236m)

6-stündlich | Neueste Meldungen
Ortszeit Temperatur Wetter
Mo, 08.03. 13:00 6.4° C wolkenlos
Mo, 08.03. 7:00 -2.7° C wolkenlos
Mo, 08.03. 1:00 0.9° C wolkenlos
So, 07.03. 19:00 8.3° C wolkig
So, 07.03. 13:00 9.4° C fast wolkenlos
So, 07.03. 7:00 -0.2° C bewölkt
So, 07.03. 1:00 -1.8° C wolkenlos
Sa, 06.03. 19:00 5.9° C wolkenlos
Ortszeit Temperatur Wetter
Mo, 08.03. 18:00 7.1° C bedeckt
Mo, 08.03. 17:50 7.1° C bedeckt
Mo, 08.03. 17:40 7.2° C bedeckt
Mo, 08.03. 17:30 7.3° C bedeckt
Mo, 08.03. 17:20 7.3° C bedeckt
Mo, 08.03. 17:10 7.6° C bedeckt
Mo, 08.03. 17:00 8.0° C leicht bewölkt
Mo, 08.03. 16:30 8.4° C wolkig
Mo, 08.03. 16:00 8.5° C leicht bewölkt
Mo, 08.03. 15:30 9.0° C fast wolkenlos
Mo, 08.03. 15:00 8.7° C wolkenlos
Ortszeit Relative Feuchte Sichtweite
Mo, 08.03. 13:00 59% 15 km
Mo, 08.03. 7:00 89% 8 km
Mo, 08.03. 1:00 81% 13 km
So, 07.03. 19:00 59% 18 km
So, 07.03. 13:00 53% 26 km
So, 07.03. 7:00 76% 20 km
So, 07.03. 1:00 80% 15 km
Sa, 06.03. 19:00 52% 30 km
Ortszeit Relative Feuchte Sichtweite
Mo, 08.03. 18:00 46% 30 km
Mo, 08.03. 17:50 46% -
Mo, 08.03. 17:40 46% -
Mo, 08.03. 17:30 46% 29 km
Mo, 08.03. 17:20 46% -
Mo, 08.03. 17:10 46% -
Mo, 08.03. 17:00 46% 29 km
Mo, 08.03. 16:30 45% 24 km
Mo, 08.03. 16:00 47% 20 km
Mo, 08.03. 15:30 46% 22 km
Mo, 08.03. 15:00 46% 23 km
Ortszeit Niederschlagsmenge Niederschlagsart
Mo, 08.03. 13:00 0.0 l/m2 in 6 Std. -
Mo, 08.03. 7:00 0.0 l/m2 in 12 Std. -
Mo, 08.03. 1:00 0.0 l/m2 in 6 Std. -
So, 07.03. 19:00 0.0 l/m2 in 12 Std. -
So, 07.03. 13:00 0.0 l/m2 in 6 Std. -
So, 07.03. 7:00 0.0 l/m2 in 12 Std. -
So, 07.03. 1:00 0.0 l/m2 in 6 Std. -
Sa, 06.03. 19:00 0.0 l/m2 in 12 Std. -
Ortszeit Niederschlagsmenge Niederschlagsart
Mo, 08.03. 18:00 0.0 l/m2 in 1 Std. -
Mo, 08.03. 17:50 keine Meldung -
Mo, 08.03. 17:40 keine Meldung -
Mo, 08.03. 17:30 0.0 l/m2 in 1 Std. -
Mo, 08.03. 17:20 keine Meldung -
Mo, 08.03. 17:10 keine Meldung -
Mo, 08.03. 17:00 0.0 l/m2 in 1 Std. -
Mo, 08.03. 16:30 0.0 l/m2 in 1 Std. -
Mo, 08.03. 16:00 0.0 l/m2 in 1 Std. -
Mo, 08.03. 15:30 0.0 l/m2 in 1 Std. -
Mo, 08.03. 15:00 0.0 l/m2 in 1 Std. -
Ortszeit Stärke Spitze Richtung
km/h Bft. km/h Grad Sektor
Mo, 08.03. 13:00 11 2 22 300° NW
Mo, 08.03. 7:00 4 1 7 350° N
Mo, 08.03. 1:00 6 1 9 10° N
So, 07.03. 19:00 7 2 25 350° N
So, 07.03. 13:00 9 2 15 310° NW
So, 07.03. 7:00 4 1 7 340° N
So, 07.03. 1:00 2 1 19 50° NO
Sa, 06.03. 19:00 4 1 32 110° O
Ortszeit Stärke Spitze Richtung
km/h Bft. km/h Grad Sektor
Mo, 08.03. 18:00 11 2 22 350° N
Mo, 08.03. 17:50 11 2 - 350° N
Mo, 08.03. 17:40 13 3 - 350° N
Mo, 08.03. 17:30 14 3 22 330° NW
Mo, 08.03. 17:20 14 3 - 330° NW
Mo, 08.03. 17:10 11 2 - 350° N
Mo, 08.03. 17:00 15 3 30 330° NW
Mo, 08.03. 16:30 14 3 25 330° NW
Mo, 08.03. 16:00 18 3 25 320° NW
Mo, 08.03. 15:30 17 3 26 320° NW
Mo, 08.03. 15:00 19 3 26 310° NW
Ortszeit Untergrenze Bedeckung Gattung
total tief tief mittel hoch
Mo, 08.03. 13:00 - 0/8 0/8 - - -
Mo, 08.03. 7:00 - 0/8 0/8 - - -
Mo, 08.03. 1:00 - 0/8 0/8 - - -
So, 07.03. 19:00 1350 m 6/8 6/8 - - -
So, 07.03. 13:00 900 m 1/8 1/8 - - -
So, 07.03. 7:00 1470 m 7/8 7/8 - - -
So, 07.03. 1:00 - 0/8 0/8 - - -
Sa, 06.03. 19:00 - 0/8 0/8 - - -
Ortszeit Bedeckungsgrad in Achtel und Wolkenuntergrenze
Mo, 08.03. 18:00 8(6600m) 8(7500m) 8(8100m)
Mo, 08.03. 17:50 8(6600m) 8(7500m) 8(8100m)
Mo, 08.03. 17:40 8(6900m) 8(7500m) 8(9000m)
Mo, 08.03. 17:30 8(6900m) 8(9000m)
Mo, 08.03. 17:20 8(6900m) 8(9000m)
Mo, 08.03. 17:10 8(6900m)
Mo, 08.03. 17:00 6(7200m) 8(7800m) 8(9000m)
Mo, 08.03. 16:30 2(7200m) 8(8100m)
Mo, 08.03. 16:00 8(8400m) 8(9000m)
Mo, 08.03. 15:30 2(8100m) 5(9000m)
Mo, 08.03. 15:00 keine Wolken
Ortszeit Luftdruck NN (hPa) Tendenz (hPa in 3 Std.)
Mo, 08.03. 13:00 1021 - 0,8
Mo, 08.03. 7:00 1022 + 0,5
Mo, 08.03. 1:00 1021 - 0,2
So, 07.03. 19:00 1020 - 0,3
So, 07.03. 13:00 1023 - 1,6
So, 07.03. 7:00 1026 - 0,7
So, 07.03. 1:00 1028 - 0,2
Sa, 06.03. 19:00 1028 + 0,3
Ortszeit Luftdruck NN (hPa) Tendenz (hPa in 3 Std.)
Mo, 08.03. 18:00 1019 - 0,4
Mo, 08.03. 17:50 1019 keine Meldung
Mo, 08.03. 17:40 1019 keine Meldung
Mo, 08.03. 17:30 1019 - 0,7
Mo, 08.03. 17:20 1019 keine Meldung
Mo, 08.03. 17:10 1019 keine Meldung
Mo, 08.03. 17:00 1019 - 1,2
Mo, 08.03. 16:30 1019 - 1,4
Mo, 08.03. 16:00 1019 - 1,6
Mo, 08.03. 15:30 1019 - 1,8
Mo, 08.03. 15:00 1020 - 1,6
Ortszeit Schneehöhe (cm)
Mo, 08.03. 13:00 0
Mo, 08.03. 7:00 0
Mo, 08.03. 1:00 0
So, 07.03. 19:00 0
So, 07.03. 13:00 0
So, 07.03. 7:00 0
So, 07.03. 1:00 0
Sa, 06.03. 19:00 0
Ortszeit Schneehöhe (cm)
Mo, 08.03. 18:00 0
Mo, 08.03. 17:50 0
Mo, 08.03. 17:40 0
Mo, 08.03. 17:30 0
Mo, 08.03. 17:20 0
Mo, 08.03. 17:10 0
Mo, 08.03. 17:00 0
Mo, 08.03. 16:30 0
Mo, 08.03. 16:00 0
Mo, 08.03. 15:30 0
Mo, 08.03. 15:00 0
Link zu dieser Seite / Seite empfehlen

Das Wetter in ...